createdAt,value
2022-08-03T03:25:33.792Z,98690.94
2022-08-03T03:28:06.469Z,98690.28
2022-08-03T03:36:08.487Z,98639.56
2022-08-03T03:38:37.293Z,98637.72
2022-08-03T03:41:04.912Z,98569.84
2022-08-03T03:43:31.971Z,98620.56
2022-08-03T03:46:01.150Z,98636.38
2022-08-03T03:48:28.053Z,98698.00
2022-08-03T03:51:02.275Z,98647.63
2022-08-03T03:53:28.965Z,98615.06
2022-08-03T03:55:59.373Z,98709.75
2022-08-03T03:58:31.141Z,98714.28
2022-08-03T04:00:57.805Z,98624.59
2022-08-03T04:03:24.374Z,98598.75
2022-08-03T04:06:12.089Z,98635.69
2022-08-03T04:08:58.075Z,98598.41
2022-08-03T04:11:30.401Z,98697.50
2022-08-03T04:14:23.522Z,98732.09
2022-08-03T04:16:54.811Z,98761.47
2022-08-03T04:19:46.826Z,98688.75
2022-08-03T04:22:19.468Z,98709.78
2022-08-03T04:24:55.858Z,98730.94
2022-08-03T04:27:28.184Z,98755.94
2022-08-03T04:29:57.001Z,98715.81
2022-08-03T04:32:28.574Z,98758.47
2022-08-03T04:34:55.323Z,98736.31
2022-08-03T04:37:43.106Z,98819.59
2022-08-03T04:40:15.941Z,98928.22
2022-08-03T04:42:45.679Z,98961.00
2022-08-03T04:45:14.820Z,98948.97
2022-08-03T04:47:42.161Z,99002.34
2022-08-03T04:50:13.496Z,99063.31
2022-08-03T04:53:03.869Z,98968.63
2022-08-03T04:55:36.534Z,98931.88
2022-08-03T04:58:09.532Z,98979.81
2022-08-03T05:00:38.350Z,98925.91
2022-08-03T05:03:04.905Z,98716.78
2022-08-03T05:05:51.027Z,98622.97
2022-08-03T05:08:20.707Z,98568.44
2022-08-03T05:10:54.615Z,98418.63
2022-08-03T05:13:23.549Z,98313.47
2022-08-03T05:15:52.530Z,98247.72
2022-08-03T05:18:19.077Z,98304.47
2022-08-03T05:20:48.148Z,98433.22
2022-08-03T05:23:17.313Z,98477.34
2022-08-03T05:25:49.807Z,98540.28
2022-08-03T05:28:19.445Z,98571.88
2022-08-03T05:30:48.314Z,98503.94
2022-08-03T05:33:14.874Z,98481.84
2022-08-03T05:35:57.322Z,98433.66
2022-08-03T05:38:34.759Z,98408.59
2022-08-03T05:41:22.442Z,98392.19
2022-08-03T05:43:52.361Z,98334.66
2022-08-03T05:46:22.217Z,98297.38
2022-08-03T05:48:48.745Z,98247.13
2022-08-03T05:51:15.360Z,98123.16
2022-08-03T05:53:46.173Z,98020.56
2022-08-03T05:56:14.310Z,97954.34
2022-08-03T05:58:46.444Z,97933.69
2022-08-03T06:01:13.683Z,97952.38
2022-08-03T06:03:40.304Z,97957.97
2022-08-03T06:06:06.887Z,97980.41
2022-08-03T06:08:34.593Z,97968.34
2022-08-03T06:11:01.124Z,97959.88
2022-08-03T06:13:27.727Z,97991.63
2022-08-03T06:15:54.330Z,97992.75
2022-08-03T06:18:24.591Z,98021.38
2022-08-03T06:20:54.248Z,98022.88
2022-08-03T06:23:22.441Z,98037.19
2022-08-03T06:25:49.360Z,98025.19
2022-08-03T06:28:42.581Z,98056.44
2022-08-03T06:31:06.947Z,98098.38
2022-08-03T06:34:30.721Z,98095.91
2022-08-03T06:36:22.264Z,97916.81
2022-08-03T06:38:48.817Z,97850.28
2022-08-03T06:41:17.687Z,97967.31
2022-08-03T06:44:03.364Z,98049.19
2022-08-03T06:46:33.007Z,98039.97
2022-08-03T06:48:59.546Z,98086.34
2022-08-03T06:52:06.088Z,98118.94
2022-08-03T06:54:24.273Z,98229.69
2022-08-03T06:56:53.667Z,98178.13
2022-08-03T07:00:08.708Z,98226.78
2022-08-03T07:02:07.433Z,98189.97
2022-08-03T07:04:33.953Z,98216.50
2022-08-03T07:07:02.551Z,98312.66
2022-08-03T07:09:29.157Z,98253.13
2022-08-03T07:11:57.012Z,98266.19
2022-08-03T07:14:23.540Z,98377.25
2022-08-03T07:16:50.033Z,98278.31
2022-08-03T07:19:16.910Z,98292.41
2022-08-03T07:21:45.876Z,98293.84
2022-08-03T07:24:17.222Z,98355.31
2022-08-03T07:26:43.744Z,98328.34
2022-08-03T07:29:15.165Z,98352.50
2022-08-03T07:31:42.169Z,98344.97
2022-08-03T07:34:08.700Z,98359.09
2022-08-03T07:36:35.197Z,98363.34
2022-08-03T07:39:01.720Z,98390.31
2022-08-03T07:41:44.213Z,98392.19
2022-08-03T07:44:10.725Z,98365.75
2022-08-03T07:46:39.526Z,98392.00
2022-08-03T07:49:08.814Z,98382.03
2022-08-03T07:51:35.556Z,98384.34
2022-08-03T07:54:07.650Z,98450.53
2022-08-03T07:56:34.199Z,98385.56
2022-08-03T07:59:01.994Z,98382.13
2022-08-03T08:01:32.728Z,98393.97
2022-08-03T08:03:59.401Z,98394.34
2022-08-03T08:06:28.048Z,98402.78
2022-08-03T08:08:55.126Z,98384.09
2022-08-03T08:11:22.409Z,98382.22
2022-08-03T08:13:51.192Z,98382.16
2022-08-03T08:16:17.711Z,98389.19
2022-08-03T08:18:44.194Z,98384.28
2022-08-03T08:21:13.111Z,98381.69
2022-08-03T08:23:43.829Z,98375.63
2022-08-03T08:26:15.184Z,98391.81
2022-08-03T08:28:41.668Z,98390.59
2022-08-03T08:31:08.489Z,98375.38
2022-08-03T08:34:02.223Z,98372.41
2022-08-03T08:36:25.911Z,98406.94
2022-08-03T08:38:52.492Z,98373.78
2022-08-03T08:41:19.344Z,98367.91
2022-08-03T08:43:46.060Z,98363.00
2022-08-03T08:46:22.824Z,98364.44
2022-08-03T08:48:54.121Z,98362.78
2022-08-03T08:51:22.563Z,98357.06
2022-08-03T08:53:53.720Z,98378.13
2022-08-03T08:56:25.964Z,98375.47
2022-08-03T08:58:57.945Z,98355.97
2022-08-03T09:01:25.265Z,98353.97
2022-08-03T09:03:55.099Z,98369.22
2022-08-03T09:06:25.144Z,98354.34
2022-08-03T09:08:51.680Z,98374.13
2022-08-03T09:11:51.545Z,98358.03
2022-08-03T09:14:10.367Z,98364.41
2022-08-03T09:17:06.888Z,98347.81
2022-08-03T09:19:38.195Z,98355.63
2022-08-03T09:22:25.736Z,98341.28
2022-08-03T09:25:22.761Z,98357.50
2022-08-03T09:27:49.442Z,98332.63
2022-08-03T09:30:33.483Z,98354.53
2022-08-03T09:33:08.135Z,98337.44
2022-08-03T09:35:53.507Z,98333.59
2022-08-03T09:38:26.141Z,98334.91
2022-08-03T09:40:59.212Z,98310.56
2022-08-03T09:43:27.610Z,98329.63
2022-08-03T09:46:05.341Z,98357.66
2022-08-03T09:48:34.936Z,98356.41
2022-08-03T09:51:13.086Z,98358.16
2022-08-03T09:53:58.867Z,98333.78
2022-08-03T09:56:39.072Z,98333.50
2022-08-03T09:59:10.334Z,98337.28
2022-08-03T10:01:41.510Z,98356.97
2022-08-03T10:04:16.894Z,98341.63
2022-08-03T10:06:45.252Z,98411.63
2022-08-03T10:09:16.753Z,98342.41
2022-08-03T10:11:44.703Z,98337.69
2022-08-03T10:14:19.456Z,98333.50
2022-08-03T10:16:50.029Z,98359.16
2022-08-03T10:19:17.127Z,98334.97
2022-08-03T10:21:56.682Z,98320.56
2022-08-03T10:24:27.228Z,98320.50
2022-08-03T10:27:03.672Z,98332.47
2022-08-03T10:29:37.105Z,98318.47
2022-08-03T10:32:06.051Z,98348.63
2022-08-03T10:34:44.265Z,98317.97
2022-08-03T10:37:18.263Z,98329.97
2022-08-03T10:39:54.562Z,98348.72
2022-08-03T10:42:24.283Z,98329.97
2022-08-03T10:45:09.689Z,98321.56
2022-08-03T10:47:36.781Z,98340.91
2022-08-03T10:50:09.378Z,98336.38
2022-08-03T10:52:41.036Z,98331.00
2022-08-03T10:55:50.405Z,98295.94
2022-08-03T10:58:37.039Z,98298.88
2022-08-03T11:01:13.691Z,98333.84
2022-08-03T11:03:54.384Z,98378.81
2022-08-03T11:06:24.724Z,98376.13
2022-08-03T11:09:11.187Z,98374.25
2022-08-03T11:11:41.860Z,98375.41
2022-08-03T11:14:13.143Z,98360.03
2022-08-03T11:16:42.837Z,98356.06
2022-08-03T11:19:16.550Z,98352.03
2022-08-03T11:21:51.964Z,98337.72
2022-08-03T11:24:36.788Z,98349.94
2022-08-03T11:27:21.639Z,98347.78
2022-08-03T11:30:09.875Z,98344.63
2022-08-03T11:32:46.778Z,98346.34
2022-08-03T11:35:26.259Z,98344.94
2022-08-03T11:38:04.314Z,98339.41
2022-08-03T11:40:52.581Z,98330.84
2022-08-03T11:43:22.235Z,98343.53
2022-08-03T11:45:59.582Z,98345.84
2022-08-03T11:48:49.656Z,98342.38
2022-08-03T11:51:26.239Z,98347.13
2022-08-03T11:54:01.414Z,98342.81
2022-08-03T11:56:29.563Z,98348.41
2022-08-03T11:59:20.122Z,98345.66
2022-08-03T12:01:46.669Z,98333.34
2022-08-03T12:04:13.258Z,98333.47
2022-08-03T12:06:55.174Z,98336.56
2022-08-03T12:09:24.081Z,98341.31
2022-08-03T12:12:00.531Z,98323.56
2022-08-03T12:14:49.236Z,98325.25
2022-08-03T12:17:16.561Z,98325.56
2022-08-03T12:19:43.667Z,98322.63
2022-08-03T12:22:13.503Z,98317.41
2022-08-03T12:24:41.929Z,98318.09
2022-08-03T12:27:08.578Z,98320.03
2022-08-03T12:29:35.307Z,98328.75
2022-08-03T12:32:02.257Z,98313.88
2022-08-03T12:34:50.855Z,98296.09
2022-08-03T12:37:29.009Z,98310.78
2022-08-03T12:40:07.727Z,98322.41
2022-08-03T12:42:38.495Z,98303.47
2022-08-03T12:45:27.158Z,98306.16
2022-08-03T12:47:58.194Z,98303.56
2022-08-03T12:50:35.098Z,98306.28
2022-08-03T12:53:08.042Z,98297.00
2022-08-03T12:56:05.382Z,98308.69
2022-08-03T12:58:35.375Z,98303.00
2022-08-03T13:01:05.095Z,98288.00
2022-08-03T13:03:54.987Z,98291.69
2022-08-03T13:06:24.419Z,98286.41
2022-08-03T13:09:04.211Z,98291.78
2022-08-03T13:11:57.693Z,98281.94
2022-08-03T13:14:19.979Z,98294.81
2022-08-03T13:16:50.514Z,98290.06
2022-08-03T13:19:17.111Z,98286.06
2022-08-03T13:21:53.864Z,98286.34
2022-08-03T13:24:32.139Z,98289.03
2022-08-03T13:28:00.948Z,98277.41
2022-08-03T13:29:54.037Z,98283.31
2022-08-03T13:32:21.544Z,98290.31
2022-08-03T13:34:50.351Z,98283.59
2022-08-03T13:37:16.939Z,98286.13
2022-08-03T13:39:57.545Z,98272.91
2022-08-03T13:42:33.757Z,98273.59
2022-08-03T13:45:01.625Z,98284.19
2022-08-03T13:47:49.531Z,98277.25
2022-08-03T13:50:16.457Z,98271.16
2022-08-03T13:52:42.988Z,98257.09
2022-08-03T13:55:09.896Z,98258.97
2022-08-03T13:58:03.677Z,98253.88
2022-08-03T14:00:29.017Z,98253.81
2022-08-03T14:03:13.223Z,98253.88
2022-08-03T14:05:41.879Z,98249.66
2022-08-03T14:08:08.485Z,98248.19
2022-08-03T14:10:40.399Z,98246.47
2022-08-03T14:13:07.779Z,98248.16
2022-08-03T14:15:37.514Z,98259.81
2022-08-03T14:18:12.760Z,98248.38
2022-08-03T14:20:48.973Z,98255.03
2022-08-03T14:23:18.642Z,98250.06
2022-08-03T14:25:52.354Z,98247.28
2022-08-03T14:28:24.834Z,98201.22
2022-08-03T14:30:55.753Z,98223.06
2022-08-03T14:33:23.143Z,98232.97
2022-08-03T14:35:52.411Z,98232.09
2022-08-03T14:38:19.150Z,98222.47
2022-08-03T14:40:48.932Z,98224.31
2022-08-03T14:43:21.125Z,98223.81
2022-08-03T14:45:52.027Z,98230.72
2022-08-03T14:50:28.573Z,98221.91
2022-08-03T14:51:10.097Z,98211.75
2022-08-03T14:53:38.672Z,98208.63
2022-08-03T14:56:10.218Z,98205.91
2022-08-03T14:58:37.312Z,98211.75
2022-08-03T15:01:04.105Z,98208.50
2022-08-03T15:03:52.846Z,98206.78
2022-08-03T15:06:19.509Z,98205.91
2022-08-03T15:09:12.412Z,98189.59
2022-08-03T15:11:39.975Z,98190.63
2022-08-03T15:14:09.296Z,98194.41
2022-08-03T15:16:36.476Z,98189.25
2022-08-03T15:19:03.104Z,98188.16
2022-08-03T15:21:52.684Z,98181.53
2022-08-03T15:24:19.856Z,98185.75
2022-08-03T15:26:46.695Z,98195.38
2022-08-03T15:30:08.772Z,98193.72
2022-08-03T15:32:06.125Z,98192.38
2022-08-03T15:34:35.652Z,98184.16
2022-08-03T15:37:02.150Z,98193.06
2022-08-03T15:39:28.787Z,98196.88
2022-08-03T15:41:57.625Z,98188.06
2022-08-03T15:44:26.785Z,98194.59
2022-08-03T15:46:53.849Z,98184.09
2022-08-03T15:49:20.661Z,98191.31
2022-08-03T15:51:47.903Z,98189.13
2022-08-03T15:54:14.539Z,98194.34
2022-08-03T15:56:45.301Z,98190.50
2022-08-03T15:59:15.227Z,98187.75
2022-08-03T16:01:42.426Z,98192.69
2022-08-03T16:04:09.342Z,98187.75
2022-08-03T16:06:36.614Z,98180.56
2022-08-03T16:09:23.727Z,98183.34
2022-08-03T16:11:54.893Z,98178.88
2022-08-03T16:14:34.424Z,98177.53
2022-08-03T16:17:06.957Z,98179.22
2022-08-03T16:19:35.825Z,98181.72
2022-08-03T16:22:02.369Z,98180.31
2022-08-03T16:24:29.939Z,98185.28
2022-08-03T16:27:00.754Z,98175.13
2022-08-03T16:29:29.990Z,98173.78
2022-08-03T16:31:56.566Z,98176.53
2022-08-03T16:34:28.536Z,98175.47
2022-08-03T16:36:57.488Z,98175.50
2022-08-03T16:39:24.094Z,98170.00
2022-08-03T16:41:53.622Z,98165.56
2022-08-03T16:44:29.600Z,98160.09
2022-08-03T16:46:56.377Z,98157.63
2022-08-03T16:49:54.012Z,98160.38
2022-08-03T16:52:12.868Z,98164.00
2022-08-03T16:54:39.866Z,98168.13
2022-08-03T16:57:11.881Z,98169.78
2022-08-03T16:59:38.532Z,98172.25
2022-08-03T17:02:10.445Z,98180.53
2022-08-03T17:04:40.347Z,98171.72
2022-08-03T17:07:07.676Z,98175.28
2022-08-03T17:09:40.320Z,98171.19
2022-08-03T17:12:07.545Z,98163.47
2022-08-03T17:14:40.611Z,98169.31
2022-08-03T17:17:21.056Z,98171.81
2022-08-03T17:19:48.716Z,98178.13
2022-08-03T17:22:26.950Z,98180.63
2022-08-03T17:24:54.871Z,98181.19
2022-08-03T17:28:49.564Z,98179.81
2022-08-03T17:30:22.148Z,98179.53
2022-08-03T17:32:57.580Z,98175.44
2022-08-03T17:35:34.376Z,98164.69
2022-08-03T17:38:11.970Z,98171.28
2022-08-03T17:40:48.079Z,98179.00
2022-08-03T17:44:13.808Z,98165.25
2022-08-03T17:46:10.688Z,98161.94
2022-08-03T17:48:41.201Z,98163.59
2022-08-03T17:51:17.300Z,98157.81
2022-08-03T17:53:53.246Z,98144.06
2022-08-03T17:56:45.047Z,98120.41
2022-08-03T17:59:52.181Z,98148.41
2022-08-03T18:03:03.338Z,98136.06
2022-08-03T18:06:11.195Z,98137.97
2022-08-03T18:08:32.367Z,98104.41
2022-08-03T18:11:14.916Z,98115.09
2022-08-03T18:13:57.631Z,98103.81
2022-08-03T18:16:35.652Z,98102.94
2022-08-03T18:19:09.304Z,98112.78
2022-08-03T18:22:03.151Z,98095.69
2022-08-03T18:24:32.286Z,98126.94
2022-08-03T18:27:04.027Z,98123.28
2022-08-03T18:29:35.433Z,98137.28
2022-08-03T18:32:06.065Z,98138.66
2022-08-03T18:34:53.853Z,98131.75
2022-08-03T18:37:25.193Z,98107.22
2022-08-03T18:39:55.454Z,98117.00
2022-08-03T18:42:27.234Z,98095.53
2022-08-03T18:44:55.947Z,97578.63
2022-08-03T18:47:52.048Z,97566.56
2022-08-03T18:50:19.670Z,97687.88
2022-08-03T18:53:15.743Z,97712.53
2022-08-03T18:56:02.146Z,97730.31
2022-08-03T18:58:38.804Z,97706.75
2022-08-03T19:01:59.929Z,97665.06
2022-08-03T19:04:08.818Z,97708.03
2022-08-03T19:06:53.798Z,97687.19
2022-08-03T19:09:48.134Z,97570.34
2022-08-03T19:12:32.396Z,97632.94
2022-08-03T19:15:06.225Z,97623.34
2022-08-03T19:17:43.445Z,97616.69
2022-08-03T19:20:30.670Z,97561.72
2022-08-03T19:22:59.361Z,97598.59
2022-08-03T19:25:35.396Z,97605.38
2022-08-03T19:28:07.407Z,97596.88
2022-08-03T19:30:39.734Z,97581.25
2022-08-03T19:33:16.516Z,97554.09
2022-08-03T19:35:55.215Z,97558.59
2022-08-03T19:38:28.285Z,97564.88
2022-08-03T19:41:00.940Z,97478.31
2022-08-03T19:43:53.358Z,97581.16
2022-08-03T19:46:30.151Z,97587.94
2022-08-03T19:49:15.360Z,97574.13
2022-08-03T19:52:01.194Z,97575.72
2022-08-03T19:54:45.483Z,97554.94
2022-08-03T19:57:27.603Z,97581.09
2022-08-03T19:59:56.069Z,97568.50
2022-08-03T20:02:26.189Z,97571.44
2022-08-03T20:05:00.061Z,97571.19
2022-08-03T20:07:28.915Z,97557.47
2022-08-03T20:12:49.729Z,97551.91
2022-08-03T20:15:30.930Z,97552.28
2022-08-03T20:18:00.290Z,97535.00
2022-08-03T20:20:37.257Z,97536.09
2022-08-03T20:23:15.210Z,97502.28
2022-08-03T20:25:57.130Z,97522.13
2022-08-03T20:28:49.713Z,97500.78
2022-08-03T20:31:19.010Z,97513.34
2022-08-03T20:33:48.679Z,97517.66
2022-08-03T20:36:17.826Z,97542.44
2022-08-03T20:38:47.298Z,97539.63
2022-08-03T20:41:15.923Z,97530.38
2022-08-03T20:43:46.051Z,97515.09
2022-08-03T20:46:29.242Z,97511.16
2022-08-03T20:49:01.228Z,97504.88
2022-08-03T20:51:50.721Z,97526.47
2022-08-03T20:54:29.373Z,97524.38
2022-08-03T20:56:58.407Z,97554.91
2022-08-03T20:59:38.471Z,97562.00
2022-08-03T21:02:19.774Z,97550.84
2022-08-03T21:05:14.495Z,97563.09
2022-08-03T21:08:06.948Z,97562.22
2022-08-03T21:10:58.119Z,97557.47
2022-08-03T21:13:11.060Z,97554.66
2022-08-03T21:14:07.799Z,97555.72
2022-08-03T21:16:58.316Z,97554.16
2022-08-03T21:19:51.729Z,97559.28
2022-08-03T21:22:45.113Z,97524.25
2022-08-03T21:25:33.778Z,97563.09
2022-08-03T21:28:27.216Z,97556.19
2022-08-03T21:31:24.543Z,97521.50
2022-08-03T21:34:13.047Z,97526.94
2022-08-03T21:36:59.860Z,97519.28
2022-08-03T21:39:50.550Z,97538.31
2022-08-03T21:42:40.253Z,97543.38
2022-08-03T21:45:27.245Z,97539.16
2022-08-03T21:48:15.591Z,97533.97
2022-08-03T21:51:03.581Z,97538.72
2022-08-03T21:54:03.517Z,97496.38
2022-08-03T21:57:01.612Z,97521.03
2022-08-03T21:59:56.919Z,97513.59
2022-08-03T22:02:57.380Z,97504.97
2022-08-03T22:05:45.046Z,97514.75
2022-08-03T22:08:34.476Z,97516.16
2022-08-03T22:11:21.790Z,97525.97
2022-08-03T22:14:10.923Z,97505.13
2022-08-03T22:16:57.811Z,97508.66
2022-08-03T22:19:51.368Z,97511.88
2022-08-03T22:22:39.767Z,97509.06
2022-08-03T22:25:33.441Z,97505.81
2022-08-03T22:28:22.003Z,97488.47
2022-08-03T22:31:30.673Z,97496.38
2022-08-03T22:34:24.436Z,97496.97
2022-08-03T22:37:16.330Z,97507.91
2022-08-03T22:40:09.115Z,97493.97
2022-08-03T22:42:56.706Z,97506.19
2022-08-03T22:46:09.363Z,97513.75
2022-08-03T22:48:54.062Z,97509.75
2022-08-03T22:51:41.350Z,97513.06
2022-08-03T22:54:32.447Z,97517.75
2022-08-03T22:57:21.674Z,97504.09
2022-08-03T23:00:12.080Z,97510.47
2022-08-03T23:03:02.390Z,97507.41
2022-08-03T23:06:00.304Z,97504.38
2022-08-03T23:08:50.396Z,97514.78
2022-08-03T23:11:45.570Z,97508.75
2022-08-03T23:14:38.457Z,97514.44
2022-08-03T23:17:26.607Z,97510.53
2022-08-03T23:20:14.543Z,97520.81
2022-08-03T23:23:01.860Z,97517.81
2022-08-03T23:25:50.176Z,97515.13
2022-08-03T23:28:38.536Z,97519.88
2022-08-03T23:31:27.642Z,97525.97
2022-08-03T23:34:33.523Z,97528.53
2022-08-03T23:37:20.817Z,97533.50
2022-08-03T23:40:09.590Z,97528.81
2022-08-03T23:43:00.210Z,97532.22
2022-08-03T23:45:48.355Z,97540.31
2022-08-03T23:48:35.300Z,97541.13
2022-08-03T23:51:37.405Z,97556.22
2022-08-03T23:54:48.083Z,97554.22
2022-08-03T23:57:53.798Z,97569.75
